createdAt,value
2022-11-09T00:01:04.152Z,63.13
2022-11-09T00:03:32.157Z,62.20
2022-11-09T00:06:01.099Z,68.60
2022-11-09T00:08:30.023Z,68.23
2022-11-09T00:11:03.838Z,62.67
2022-11-09T00:13:33.394Z,68.03
2022-11-09T00:16:02.199Z,65.97
2022-11-09T00:18:30.798Z,67.03
2022-11-09T00:20:58.955Z,67.87
2022-11-09T00:23:26.996Z,65.33
2022-11-09T00:25:54.837Z,73.30
2022-11-09T00:28:22.684Z,68.53
2022-11-09T00:30:51.860Z,69.57
2022-11-09T00:33:19.978Z,64.37
2022-11-09T00:35:48.050Z,66.00
2022-11-09T00:38:16.173Z,64.50
2022-11-09T00:40:44.277Z,59.87
2022-11-09T00:43:12.650Z,63.37
2022-11-09T00:45:40.764Z,60.03
2022-11-09T00:48:13.206Z,57.47
2022-11-09T00:50:41.041Z,58.37
2022-11-09T00:53:09.079Z,59.87
2022-11-09T00:55:36.925Z,59.43
2022-11-09T00:58:05.167Z,56.50
2022-11-09T01:00:33.013Z,47.27
2022-11-09T01:03:00.846Z,48.27
2022-11-09T01:05:30.072Z,46.70
2022-11-09T01:07:57.945Z,45.07
2022-11-09T01:10:25.764Z,45.73
2022-11-09T01:12:53.807Z,46.57
2022-11-09T01:15:21.700Z,46.00
2022-11-09T01:17:49.559Z,46.33
2022-11-09T01:20:17.943Z,42.53
2022-11-09T01:22:47.196Z,45.33
2022-11-09T01:25:15.530Z,45.37
2022-11-09T01:27:43.412Z,45.17
2022-11-09T01:30:12.132Z,44.60
2022-11-09T01:32:39.980Z,45.57
2022-11-09T01:35:08.348Z,38.30
2022-11-09T01:37:36.254Z,40.57
2022-11-09T01:40:08.827Z,41.80
2022-11-09T01:42:38.480Z,41.50
2022-11-09T01:45:23.803Z,39.10
2022-11-09T01:47:55.644Z,40.40
2022-11-09T01:50:32.195Z,40.30
2022-11-09T01:53:03.848Z,41.73
2022-11-09T01:55:33.176Z,42.50
2022-11-09T01:58:07.055Z,42.50
2022-11-09T02:00:38.959Z,40.13
2022-11-09T02:03:10.686Z,36.87
2022-11-09T02:05:41.690Z,37.67
2022-11-09T02:08:11.759Z,37.27
2022-11-09T02:10:47.452Z,36.90
2022-11-09T02:13:18.910Z,36.60
2022-11-09T02:15:47.053Z,37.47
2022-11-09T02:18:15.600Z,37.97
2022-11-09T02:20:50.370Z,36.10
2022-11-09T02:23:19.199Z,37.60
2022-11-09T02:25:51.542Z,38.37
2022-11-09T02:28:19.671Z,35.83
2022-11-09T02:30:51.960Z,37.57
2022-11-09T02:33:20.126Z,36.77
2022-11-09T02:35:49.656Z,36.20
2022-11-09T02:38:17.558Z,32.73
2022-11-09T02:40:48.160Z,34.73
2022-11-09T02:43:16.901Z,34.57
2022-11-09T02:45:45.019Z,41.20
2022-11-09T02:48:12.899Z,37.77
2022-11-09T02:50:40.740Z,37.37
2022-11-09T02:53:10.034Z,39.23
2022-11-09T02:55:37.891Z,47.90
2022-11-09T02:58:05.720Z,50.03
2022-11-09T03:00:33.550Z,46.67
2022-11-09T03:03:01.640Z,48.27
2022-11-09T03:05:29.525Z,45.57
2022-11-09T03:07:57.704Z,46.87
2022-11-09T03:10:27.135Z,42.07
2022-11-09T03:12:55.979Z,46.03
2022-11-09T03:15:23.831Z,42.87
2022-11-09T03:17:51.700Z,42.47
2022-11-09T03:20:19.766Z,39.03
2022-11-09T03:22:47.580Z,38.43
2022-11-09T03:25:15.523Z,42.13
2022-11-09T03:27:44.727Z,45.83
2022-11-09T03:30:13.085Z,48.57
2022-11-09T03:32:40.945Z,48.47
2022-11-09T03:35:09.610Z,51.37
2022-11-09T03:37:37.505Z,51.57
2022-11-09T03:40:06.224Z,52.40
2022-11-09T03:42:34.089Z,51.30
2022-11-09T03:45:03.310Z,48.63
2022-11-09T03:47:31.190Z,45.27
2022-11-09T03:49:59.183Z,45.60
2022-11-09T03:52:27.038Z,47.40
2022-11-09T03:54:54.881Z,47.60
2022-11-09T03:57:22.807Z,46.10
2022-11-09T03:59:50.662Z,49.20
2022-11-09T04:02:19.895Z,44.40
2022-11-09T04:04:47.794Z,47.03
2022-11-09T04:07:16.034Z,45.17
2022-11-09T04:09:43.941Z,45.30
2022-11-09T04:12:11.803Z,47.27
2022-11-09T04:14:39.681Z,49.93
2022-11-09T04:17:07.671Z,49.37
2022-11-09T04:19:37.228Z,53.33
2022-11-09T04:22:05.083Z,51.77
2022-11-09T04:24:32.973Z,55.17
2022-11-09T04:27:01.017Z,52.47
2022-11-09T04:29:28.902Z,54.03
2022-11-09T04:31:56.761Z,50.10
2022-11-09T04:34:24.604Z,54.43
2022-11-09T04:36:53.888Z,59.60
2022-11-09T04:39:21.711Z,52.30
2022-11-09T04:41:49.564Z,54.23
2022-11-09T04:44:17.427Z,59.17
2022-11-09T04:46:45.306Z,48.67
2022-11-09T04:49:13.152Z,45.00
2022-11-09T04:51:41.064Z,52.20
2022-11-09T04:54:10.348Z,55.60
2022-11-09T04:56:38.202Z,58.13
2022-11-09T04:59:06.056Z,53.97
2022-11-09T05:01:35.283Z,48.80
2022-11-09T05:04:03.241Z,50.07
2022-11-09T05:06:34.160Z,45.13
2022-11-09T05:09:03.754Z,43.93
2022-11-09T05:11:33.930Z,39.23
2022-11-09T05:14:01.862Z,42.53
2022-11-09T05:16:30.188Z,42.90
2022-11-09T05:18:58.046Z,43.27
2022-11-09T05:21:25.931Z,43.13
2022-11-09T05:24:02.857Z,42.23
2022-11-09T05:26:33.958Z,45.03
2022-11-09T05:29:03.368Z,46.80
2022-11-09T05:31:32.015Z,45.83
2022-11-09T05:34:00.433Z,46.37
2022-11-09T05:36:30.502Z,55.27
2022-11-09T05:38:59.086Z,63.40
2022-11-09T05:41:27.529Z,60.30
2022-11-09T05:43:56.737Z,61.57
2022-11-09T05:46:25.249Z,52.80
2022-11-09T05:48:53.131Z,59.73
2022-11-09T05:51:20.970Z,59.97
2022-11-09T05:53:48.832Z,58.03
2022-11-09T05:56:16.987Z,53.33
2022-11-09T05:58:44.863Z,56.90
2022-11-09T06:01:15.916Z,50.53
2022-11-09T06:03:44.428Z,54.73
2022-11-09T06:06:14.528Z,52.50
2022-11-09T06:08:42.907Z,48.87
2022-11-09T06:11:16.798Z,50.80
2022-11-09T06:13:46.321Z,52.87
2022-11-09T06:16:16.371Z,50.30
2022-11-09T06:18:44.258Z,51.83
2022-11-09T06:21:12.169Z,51.73
2022-11-09T06:23:40.033Z,51.83
2022-11-09T06:26:10.018Z,48.97
2022-11-09T06:28:38.559Z,50.77
2022-11-09T06:31:08.423Z,50.63
2022-11-09T06:33:37.726Z,47.97
2022-11-09T06:36:06.527Z,44.37
2022-11-09T06:38:34.627Z,47.33
2022-11-09T06:41:02.541Z,45.80
2022-11-09T06:43:30.530Z,48.60
2022-11-09T06:45:58.628Z,38.33
2022-11-09T06:48:26.560Z,46.70
2022-11-09T06:50:56.039Z,47.30
2022-11-09T06:53:24.230Z,33.57
2022-11-09T06:55:52.183Z,30.17
2022-11-09T06:58:20.834Z,33.00
2022-11-09T07:00:48.858Z,31.10
2022-11-09T07:03:18.421Z,31.80
2022-11-09T07:05:47.038Z,32.07
2022-11-09T07:08:17.200Z,34.83
2022-11-09T07:10:45.753Z,31.87
2022-11-09T07:13:13.971Z,31.50
2022-11-09T07:15:41.992Z,32.60
2022-11-09T07:18:12.393Z,37.23
2022-11-09T07:20:40.231Z,32.37
2022-11-09T07:23:08.099Z,31.93
2022-11-09T07:25:37.361Z,31.90
2022-11-09T07:28:05.879Z,29.95
2022-11-09T07:30:33.826Z,30.73
2022-11-09T07:33:09.042Z,30.77
2022-11-09T07:35:38.077Z,32.75
2022-11-09T07:38:06.082Z,31.80
2022-11-09T07:40:34.089Z,31.67
2022-11-09T07:43:04.569Z,31.85
2022-11-09T07:45:34.018Z,31.83
2022-11-09T07:48:04.504Z,33.22
2022-11-09T07:50:33.812Z,32.10
2022-11-09T07:53:02.844Z,34.35
2022-11-09T07:55:32.226Z,33.50
2022-11-09T07:58:01.819Z,35.58
2022-11-09T08:00:33.330Z,33.15
2022-11-09T08:03:01.443Z,38.20
2022-11-09T08:05:37.511Z,36.17
2022-11-09T08:08:07.357Z,37.03
2022-11-09T08:10:36.818Z,35.53
2022-11-09T08:13:07.107Z,36.58
2022-11-09T08:15:38.372Z,35.38
2022-11-09T08:18:08.040Z,35.75
2022-11-09T08:20:36.275Z,35.42
2022-11-09T08:23:05.121Z,35.13
2022-11-09T08:25:34.161Z,33.88
2022-11-09T08:28:03.524Z,33.80
2022-11-09T08:30:32.070Z,35.25
2022-11-09T08:33:03.388Z,35.00
2022-11-09T08:35:31.783Z,36.70
2022-11-09T08:38:02.873Z,51.83
2022-11-09T08:40:31.966Z,39.88
2022-11-09T08:43:04.060Z,41.08
2022-11-09T08:45:33.724Z,40.63
2022-11-09T08:48:04.253Z,37.83
2022-11-09T08:50:33.514Z,39.53
2022-11-09T08:53:02.039Z,38.10
2022-11-09T08:55:31.301Z,38.20
2022-11-09T08:58:01.588Z,37.92
2022-11-09T09:00:29.922Z,37.85
2022-11-09T09:02:58.050Z,36.35
2022-11-09T09:05:27.675Z,38.42
2022-11-09T09:07:55.557Z,40.90
2022-11-09T09:10:23.454Z,37.65
2022-11-09T09:12:51.354Z,38.17
2022-11-09T09:15:19.401Z,37.13
2022-11-09T09:17:47.325Z,39.13
2022-11-09T09:20:16.340Z,38.38
2022-11-09T09:22:45.646Z,36.15
2022-11-09T09:25:13.558Z,39.25
2022-11-09T09:27:41.472Z,36.95
2022-11-09T09:30:10.291Z,35.45
2022-11-09T09:32:38.203Z,35.80
2022-11-09T09:35:07.032Z,42.38
2022-11-09T09:37:34.930Z,35.78
2022-11-09T09:40:04.366Z,34.25
2022-11-09T09:42:35.955Z,35.25
2022-11-09T09:45:06.907Z,35.88
2022-11-09T09:47:47.340Z,35.28
2022-11-09T09:50:19.895Z,32.92
2022-11-09T09:53:22.056Z,34.78
2022-11-09T09:55:47.714Z,33.00
2022-11-09T09:58:21.969Z,36.58
2022-11-09T10:00:56.002Z,34.28
2022-11-09T10:03:23.942Z,32.72
2022-11-09T10:05:59.583Z,33.13
2022-11-09T10:08:38.393Z,33.58
2022-11-09T10:11:17.874Z,32.05
2022-11-09T10:14:02.590Z,29.52
2022-11-09T10:16:39.173Z,29.85
2022-11-09T10:19:36.929Z,21.83
2022-11-09T10:22:12.036Z,23.40
2022-11-09T10:27:44.095Z,27.60
2022-11-09T10:30:16.405Z,25.35
2022-11-09T10:32:46.887Z,26.27
2022-11-09T10:35:21.386Z,26.58
2022-11-09T10:37:51.082Z,28.08
2022-11-09T10:40:24.121Z,28.77
2022-11-09T10:42:56.378Z,28.25
2022-11-09T10:45:31.722Z,23.98
2022-11-09T10:47:59.895Z,26.98
2022-11-09T10:50:33.549Z,25.40
2022-11-09T10:53:19.724Z,26.15
2022-11-09T10:55:53.050Z,29.10
2022-11-09T10:58:27.860Z,36.53
2022-11-09T11:01:02.031Z,29.65
2022-11-09T11:03:30.991Z,29.48
2022-11-09T11:06:00.148Z,29.52
2022-11-09T11:08:40.525Z,30.35
2022-11-09T11:11:35.206Z,30.42
2022-11-09T11:14:22.787Z,28.73
2022-11-09T11:16:53.495Z,29.50
2022-11-09T11:19:36.004Z,27.33
2022-11-09T11:22:23.138Z,28.63
2022-11-09T11:24:58.532Z,27.88
2022-11-09T11:27:33.082Z,27.25
2022-11-09T11:30:11.650Z,28.02
2022-11-09T11:32:39.546Z,27.65
2022-11-09T11:35:14.438Z,27.02
2022-11-09T11:37:50.935Z,26.95
2022-11-09T11:40:26.519Z,26.10
2022-11-09T11:43:29.933Z,26.80
2022-11-09T11:46:10.230Z,25.17
2022-11-09T11:49:07.580Z,27.95
2022-11-09T11:51:46.382Z,26.13
2022-11-09T11:54:24.142Z,33.05
2022-11-09T11:57:02.322Z,26.27
2022-11-09T11:59:55.083Z,24.35
2022-11-09T12:02:54.823Z,25.90
2022-11-09T12:05:39.278Z,24.45
2022-11-09T12:08:16.635Z,23.67
2022-11-09T12:10:53.451Z,24.45
2022-11-09T12:13:44.483Z,24.45
2022-11-09T12:16:20.653Z,22.08
2022-11-09T12:19:01.648Z,21.02
2022-11-09T12:21:37.578Z,19.75
2022-11-09T12:24:26.425Z,19.55
2022-11-09T12:30:09.874Z,21.00
2022-11-09T12:32:45.372Z,20.98
2022-11-09T12:35:30.804Z,24.00
2022-11-09T12:38:04.694Z,20.38
2022-11-09T12:40:35.860Z,23.48
2022-11-09T12:43:15.594Z,25.95
2022-11-09T12:45:45.470Z,25.83
2022-11-09T12:48:26.029Z,22.95
2022-11-09T12:50:55.781Z,22.63
2022-11-09T12:53:26.628Z,21.98
2022-11-09T12:56:00.547Z,23.67
2022-11-09T12:58:30.671Z,23.02
2022-11-09T13:01:00.161Z,24.83
2022-11-09T13:03:30.959Z,23.77
2022-11-09T13:06:23.059Z,24.88
2022-11-09T13:09:01.023Z,27.85
2022-11-09T13:11:38.787Z,25.38
2022-11-09T13:14:38.471Z,24.63
2022-11-09T13:17:39.360Z,25.55
2022-11-09T13:20:54.498Z,25.27
2022-11-09T13:23:54.666Z,23.90
2022-11-09T13:26:26.358Z,23.83
2022-11-09T13:29:25.457Z,25.48
2022-11-09T13:32:33.613Z,25.08
2022-11-09T13:35:02.760Z,25.02
2022-11-09T13:37:38.941Z,24.45
2022-11-09T13:40:51.160Z,25.98
2022-11-09T13:43:23.471Z,26.42
2022-11-09T13:45:54.139Z,25.83
2022-11-09T13:48:34.529Z,25.05
2022-11-09T13:51:05.320Z,25.00
2022-11-09T13:53:52.828Z,24.88
2022-11-09T13:56:27.929Z,23.95
2022-11-09T13:59:03.966Z,24.83
2022-11-09T14:01:37.938Z,25.17
2022-11-09T14:04:06.496Z,24.73
2022-11-09T14:06:34.942Z,26.90
2022-11-09T14:09:04.211Z,23.77
2022-11-09T14:11:51.852Z,25.03
2022-11-09T14:14:52.570Z,24.13
2022-11-09T14:17:29.032Z,26.43
2022-11-09T14:20:11.892Z,25.50
2022-11-09T14:22:41.725Z,23.93
2022-11-09T14:25:16.090Z,22.30
2022-11-09T14:27:51.517Z,23.23
2022-11-09T14:30:23.590Z,27.43
2022-11-09T14:32:54.142Z,24.77
2022-11-09T14:35:28.418Z,23.73
2022-11-09T14:37:57.945Z,24.30
2022-11-09T14:40:28.224Z,28.30
2022-11-09T14:43:00.661Z,30.73
2022-11-09T14:45:30.311Z,28.47
2022-11-09T14:48:00.671Z,31.27
2022-11-09T14:50:31.638Z,27.67
2022-11-09T14:53:01.346Z,25.40
2022-11-09T14:55:29.975Z,25.87
2022-11-09T14:57:58.320Z,25.13
2022-11-09T15:00:31.376Z,25.97
2022-11-09T15:02:59.588Z,27.70
2022-11-09T15:05:36.048Z,32.53
2022-11-09T15:08:03.955Z,31.27
2022-11-09T15:10:32.681Z,28.63
2022-11-09T15:13:04.295Z,32.23
2022-11-09T15:15:36.342Z,31.47
2022-11-09T15:18:04.439Z,31.90
2022-11-09T15:20:34.743Z,32.40
2022-11-09T15:23:04.696Z,32.77
2022-11-09T15:25:35.660Z,43.90
2022-11-09T15:28:21.551Z,36.40
2022-11-09T15:31:12.753Z,33.33
2022-11-09T15:33:47.354Z,36.57
2022-11-09T15:36:28.639Z,36.30
2022-11-09T15:38:59.741Z,32.63
2022-11-09T15:41:28.316Z,36.07
2022-11-09T15:43:56.484Z,37.30
2022-11-09T15:46:27.942Z,43.23
2022-11-09T15:48:58.399Z,37.50
2022-11-09T15:51:26.256Z,37.83
2022-11-09T15:53:54.307Z,36.73
2022-11-09T15:56:23.823Z,39.37
2022-11-09T15:58:53.438Z,41.33
2022-11-09T16:01:21.304Z,39.73
2022-11-09T16:03:50.643Z,38.50
2022-11-09T16:06:22.312Z,42.10
2022-11-09T16:08:51.164Z,47.50
2022-11-09T16:11:19.028Z,44.50
2022-11-09T16:13:46.931Z,36.40
2022-11-09T16:16:16.799Z,38.20
2022-11-09T16:18:44.747Z,38.77
2022-11-09T16:21:16.479Z,43.40
2022-11-09T16:23:44.688Z,48.67
2022-11-09T16:26:15.284Z,44.90
2022-11-09T16:28:44.275Z,52.87
2022-11-09T16:31:13.458Z,52.47
2022-11-09T16:33:41.786Z,66.83
2022-11-09T16:36:13.745Z,64.30
2022-11-09T16:38:45.764Z,55.17
2022-11-09T16:41:15.547Z,58.00
2022-11-09T16:43:45.208Z,61.73
2022-11-09T16:46:14.768Z,59.97
2022-11-09T16:48:42.599Z,56.33
2022-11-09T16:51:10.452Z,53.87
2022-11-09T16:53:38.320Z,55.10
2022-11-09T16:56:08.083Z,53.60
2022-11-09T16:58:36.134Z,50.13
2022-11-09T17:01:12.711Z,57.00
2022-11-09T17:03:41.616Z,57.40
2022-11-09T17:06:11.254Z,57.27
2022-11-09T17:08:39.916Z,53.70
2022-11-09T17:11:11.205Z,58.47
2022-11-09T17:13:39.660Z,54.13
2022-11-09T17:16:09.646Z,59.97
2022-11-09T17:18:38.189Z,56.57
2022-11-09T17:21:11.164Z,55.10
2022-11-09T17:23:39.238Z,59.83
2022-11-09T17:26:09.611Z,61.73
2022-11-09T17:28:42.645Z,53.53
2022-11-09T17:31:13.015Z,71.10
2022-11-09T17:33:40.972Z,71.43
2022-11-09T17:36:11.390Z,70.30
2022-11-09T17:38:40.250Z,64.50
2022-11-09T17:41:11.607Z,64.83
2022-11-09T17:43:41.111Z,65.27
2022-11-09T17:46:10.823Z,71.93
2022-11-09T17:48:40.312Z,65.50
2022-11-09T17:51:08.816Z,72.70
2022-11-09T17:53:36.963Z,88.63
2022-11-09T17:56:05.537Z,62.40
2022-11-09T17:58:34.995Z,78.40
2022-11-09T18:01:07.263Z,75.43
2022-11-09T18:03:36.412Z,75.03
2022-11-09T18:06:04.855Z,73.67
2022-11-09T18:08:32.777Z,75.83
2022-11-09T18:11:00.841Z,77.10
2022-11-09T18:13:28.999Z,74.97
2022-11-09T18:15:58.218Z,73.43
2022-11-09T18:18:26.076Z,53.47
2022-11-09T18:20:54.031Z,64.53
2022-11-09T18:23:21.882Z,68.83
2022-11-09T18:25:57.529Z,70.10
2022-11-09T18:28:25.427Z,70.40
2022-11-09T18:30:53.728Z,77.17
2022-11-09T18:33:23.012Z,95.50
2022-11-09T18:35:57.472Z,76.27
2022-11-09T18:38:29.114Z,93.00
2022-11-09T18:40:59.981Z,87.43
2022-11-09T18:43:28.123Z,93.93
2022-11-09T18:45:57.416Z,92.70
2022-11-09T18:48:27.183Z,94.00
2022-11-09T18:50:56.536Z,88.27
2022-11-09T18:53:28.134Z,75.93
2022-11-09T18:56:06.277Z,83.10
2022-11-09T18:58:35.518Z,74.33
2022-11-09T19:01:05.125Z,74.97
2022-11-09T19:03:34.728Z,64.07
2022-11-09T19:06:06.456Z,67.23
2022-11-09T19:08:52.062Z,64.07
2022-11-09T19:11:20.144Z,69.30
2022-11-09T19:13:48.111Z,83.20
2022-11-09T19:16:16.686Z,81.03
2022-11-09T19:18:46.050Z,75.80
2022-11-09T19:21:34.055Z,82.77
2022-11-09T19:24:02.021Z,69.80
2022-11-09T19:26:29.979Z,71.33
2022-11-09T19:28:57.899Z,72.80
2022-11-09T19:31:26.536Z,67.90
2022-11-09T19:33:55.815Z,67.40
2022-11-09T19:36:30.979Z,65.37
2022-11-09T19:39:00.055Z,67.57
2022-11-09T19:41:27.990Z,67.03
2022-11-09T19:43:58.726Z,64.23
2022-11-09T19:46:27.402Z,66.10
2022-11-09T19:48:56.619Z,59.63
2022-11-09T19:51:24.993Z,73.73
2022-11-09T19:53:54.334Z,56.23
2022-11-09T19:56:23.020Z,62.63
2022-11-09T19:58:52.495Z,59.33
2022-11-09T20:01:21.294Z,58.50
2022-11-09T20:03:50.523Z,58.20
2022-11-09T20:06:20.587Z,52.63
2022-11-09T20:08:48.774Z,52.00
2022-11-09T20:11:32.539Z,51.47
2022-11-09T20:14:00.473Z,53.50
2022-11-09T20:16:28.859Z,55.73
2022-11-09T20:18:56.974Z,48.50
2022-11-09T20:21:26.226Z,49.50
2022-11-09T20:23:54.411Z,52.40
2022-11-09T20:26:22.514Z,53.73
2022-11-09T20:28:50.391Z,57.40
2022-11-09T20:31:20.522Z,56.00
2022-11-09T20:33:48.394Z,45.10
2022-11-09T20:36:18.615Z,45.83
2022-11-09T20:38:48.690Z,53.47
2022-11-09T20:41:18.014Z,62.97
2022-11-09T20:43:48.451Z,64.40
2022-11-09T20:46:18.194Z,58.07
2022-11-09T20:48:54.171Z,54.90
2022-11-09T20:51:24.144Z,52.30
2022-11-09T20:53:53.618Z,50.03
2022-11-09T20:56:22.129Z,48.43
2022-11-09T20:58:50.106Z,50.83
2022-11-09T21:01:19.890Z,49.50
2022-11-09T21:03:48.874Z,54.87
2022-11-09T21:06:16.825Z,59.67
2022-11-09T21:08:46.138Z,55.63
2022-11-09T21:11:15.331Z,55.97
2022-11-09T21:13:44.310Z,56.10
2022-11-09T21:16:13.654Z,58.60
2022-11-09T21:18:41.997Z,59.63
2022-11-09T21:21:12.107Z,60.07
2022-11-09T21:23:58.298Z,53.40
2022-11-09T21:26:45.636Z,57.33
2022-11-09T21:29:32.422Z,63.50
2022-11-09T21:32:00.472Z,67.60
2022-11-09T21:34:32.709Z,58.33
2022-11-09T21:37:03.506Z,59.47
2022-11-09T21:39:31.359Z,57.80
2022-11-09T21:42:00.900Z,55.57
2022-11-09T21:44:30.138Z,58.10
2022-11-09T21:46:58.676Z,57.47
2022-11-09T21:49:26.639Z,60.17
2022-11-09T21:51:54.959Z,73.00
2022-11-09T21:54:23.103Z,83.63
2022-11-09T21:56:52.282Z,71.97
2022-11-09T21:59:21.578Z,82.60
2022-11-09T22:01:49.544Z,78.27
2022-11-09T22:04:17.689Z,69.70
2022-11-09T22:06:45.742Z,70.50
2022-11-09T22:09:16.505Z,65.67
2022-11-09T22:12:02.096Z,60.37
2022-11-09T22:14:48.775Z,59.70
2022-11-09T22:17:16.700Z,70.07
2022-11-09T22:20:01.930Z,71.80
2022-11-09T22:22:31.188Z,64.97
2022-11-09T22:24:59.113Z,69.03
2022-11-09T22:27:27.115Z,68.47
2022-11-09T22:29:56.350Z,75.30
2022-11-09T22:32:24.254Z,68.43
2022-11-09T22:34:52.069Z,69.13
2022-11-09T22:37:19.979Z,70.40
2022-11-09T22:39:47.883Z,70.43
2022-11-09T22:42:15.860Z,68.00
2022-11-09T22:44:43.731Z,69.33
2022-11-09T22:47:13.401Z,74.17
2022-11-09T22:49:41.267Z,73.00
2022-11-09T22:52:09.518Z,71.77
2022-11-09T22:54:39.711Z,74.93
2022-11-09T22:57:07.569Z,70.00
2022-11-09T22:59:35.408Z,70.13
2022-11-09T23:02:03.371Z,73.27
2022-11-09T23:04:32.587Z,76.57
2022-11-09T23:07:00.543Z,68.83
2022-11-09T23:09:28.425Z,64.50
2022-11-09T23:11:56.387Z,71.43
2022-11-09T23:14:44.304Z,70.50
2022-11-09T23:17:26.046Z,72.30
2022-11-09T23:19:55.254Z,71.00
2022-11-09T23:22:23.087Z,65.63
2022-11-09T23:25:08.477Z,63.37
2022-11-09T23:27:36.322Z,65.37
2022-11-09T23:30:04.720Z,62.70
2022-11-09T23:32:32.543Z,62.70
2022-11-09T23:35:01.737Z,62.23
2022-11-09T23:37:29.589Z,61.03
2022-11-09T23:39:57.412Z,67.43
2022-11-09T23:42:25.241Z,60.00
2022-11-09T23:44:53.096Z,64.63
2022-11-09T23:47:21.118Z,61.40
2022-11-09T23:49:49.010Z,60.90
2022-11-09T23:52:18.228Z,64.50
2022-11-09T23:54:46.200Z,60.97
2022-11-09T23:57:14.175Z,60.00
2022-11-09T23:59:42.052Z,61.37
